sensor_id;sensor_type;location;lat;lon;timestamp;P1;durP1;ratioP1;P2;durP2;ratioP2
51248;SDS011;39642;47.556;18.728;2024-02-21T00:02:18;6.20;;;1.80;;
51248;SDS011;39642;47.556;18.728;2024-02-21T00:04:43;5.25;;;1.70;;
51248;SDS011;39642;47.556;18.728;2024-02-21T00:07:09;6.25;;;1.70;;
51248;SDS011;39642;47.556;18.728;2024-02-21T00:09:35;7.22;;;1.90;;
51248;SDS011;39642;47.556;18.728;2024-02-21T00:12:01;6.35;;;2.00;;
51248;SDS011;39642;47.556;18.728;2024-02-21T00:14:28;5.10;;;1.70;;
51248;SDS011;39642;47.556;18.728;2024-02-21T00:16:54;5.53;;;1.80;;
51248;SDS011;39642;47.556;18.728;2024-02-21T00:19:20;7.18;;;1.90;;
51248;SDS011;39642;47.556;18.728;2024-02-21T00:21:46;6.10;;;1.73;;
51248;SDS011;39642;47.556;18.728;2024-02-21T00:24:12;6.87;;;2.00;;
51248;SDS011;39642;47.556;18.728;2024-02-21T00:26:38;5.68;;;1.80;;
51248;SDS011;39642;47.556;18.728;2024-02-21T00:29:04;6.30;;;1.80;;
51248;SDS011;39642;47.556;18.728;2024-02-21T00:31:30;5.18;;;1.60;;
51248;SDS011;39642;47.556;18.728;2024-02-21T00:33:56;6.93;;;1.80;;
51248;SDS011;39642;47.556;18.728;2024-02-21T00:36:23;6.68;;;1.70;;
51248;SDS011;39642;47.556;18.728;2024-02-21T00:38:49;5.28;;;1.70;;
51248;SDS011;39642;47.556;18.728;2024-02-21T00:41:15;5.12;;;1.50;;
51248;SDS011;39642;47.556;18.728;2024-02-21T00:43:41;5.87;;;1.50;;
51248;SDS011;39642;47.556;18.728;2024-02-21T00:46:08;6.45;;;1.80;;
51248;SDS011;39642;47.556;18.728;2024-02-21T00:48:33;6.40;;;1.75;;
51248;SDS011;39642;47.556;18.728;2024-02-21T00:50:59;3.75;;;1.50;;
51248;SDS011;39642;47.556;18.728;2024-02-21T00:53:25;5.20;;;1.70;;
51248;SDS011;39642;47.556;18.728;2024-02-21T00:55:51;5.35;;;1.58;;
51248;SDS011;39642;47.556;18.728;2024-02-21T00:58:17;5.15;;;1.77;;
51248;SDS011;39642;47.556;18.728;2024-02-21T01:00:43;5.68;;;1.60;;
51248;SDS011;39642;47.556;18.728;2024-02-21T01:03:09;5.50;;;1.87;;
51248;SDS011;39642;47.556;18.728;2024-02-21T01:05:35;6.05;;;1.70;;
51248;SDS011;39642;47.556;18.728;2024-02-21T01:08:01;4.47;;;1.55;;
51248;SDS011;39642;47.556;18.728;2024-02-21T01:10:27;5.95;;;1.50;;
51248;SDS011;39642;47.556;18.728;2024-02-21T01:12:52;5.50;;;1.60;;
51248;SDS011;39642;47.556;18.728;2024-02-21T01:15:18;4.85;;;1.52;;
51248;SDS011;39642;47.556;18.728;2024-02-21T01:17:44;4.28;;;1.70;;
51248;SDS011;39642;47.556;18.728;2024-02-21T01:20:10;7.40;;;1.70;;
51248;SDS011;39642;47.556;18.728;2024-02-21T01:22:36;5.07;;;1.60;;
51248;SDS011;39642;47.556;18.728;2024-02-21T01:25:02;5.43;;;1.60;;
51248;SDS011;39642;47.556;18.728;2024-02-21T01:27:28;4.70;;;1.60;;
51248;SDS011;39642;47.556;18.728;2024-02-21T01:29:54;5.28;;;1.70;;
51248;SDS011;39642;47.556;18.728;2024-02-21T01:32:21;5.78;;;1.70;;
51248;SDS011;39642;47.556;18.728;2024-02-21T01:34:50;5.75;;;1.65;;
51248;SDS011;39642;47.556;18.728;2024-02-21T01:37:16;4.95;;;1.60;;
51248;SDS011;39642;47.556;18.728;2024-02-21T01:39:42;5.45;;;1.75;;
51248;SDS011;39642;47.556;18.728;2024-02-21T01:42:08;6.20;;;1.80;;
51248;SDS011;39642;47.556;18.728;2024-02-21T01:44:34;5.78;;;1.90;;
51248;SDS011;39642;47.556;18.728;2024-02-21T01:47:01;5.55;;;1.60;;
51248;SDS011;39642;47.556;18.728;2024-02-21T01:49:28;4.50;;;1.60;;
51248;SDS011;39642;47.556;18.728;2024-02-21T01:51:54;5.12;;;1.67;;
51248;SDS011;39642;47.556;18.728;2024-02-21T01:54:20;6.20;;;1.60;;
51248;SDS011;39642;47.556;18.728;2024-02-21T01:56:46;6.20;;;1.73;;
51248;SDS011;39642;47.556;18.728;2024-02-21T01:59:13;5.50;;;1.65;;
51248;SDS011;39642;47.556;18.728;2024-02-21T02:01:41;6.22;;;1.62;;
51248;SDS011;39642;47.556;18.728;2024-02-21T02:04:08;6.97;;;1.80;;
51248;SDS011;39642;47.556;18.728;2024-02-21T02:06:34;5.28;;;1.58;;
51248;SDS011;39642;47.556;18.728;2024-02-21T02:09:00;4.60;;;1.67;;
51248;SDS011;39642;47.556;18.728;2024-02-21T02:11:26;7.10;;;1.80;;
51248;SDS011;39642;47.556;18.728;2024-02-21T02:13:52;5.22;;;1.62;;
51248;SDS011;39642;47.556;18.728;2024-02-21T02:16:18;6.50;;;1.60;;
51248;SDS011;39642;47.556;18.728;2024-02-21T02:18:44;7.53;;;1.80;;
51248;SDS011;39642;47.556;18.728;2024-02-21T02:24:11;6.15;;;1.60;;
51248;SDS011;39642;47.556;18.728;2024-02-21T02:26:39;6.07;;;1.55;;
51248;SDS011;39642;47.556;18.728;2024-02-21T02:29:05;5.37;;;1.60;;
51248;SDS011;39642;47.556;18.728;2024-02-21T02:31:31;5.68;;;1.65;;
51248;SDS011;39642;47.556;18.728;2024-02-21T02:33:57;5.47;;;1.55;;
51248;SDS011;39642;47.556;18.728;2024-02-21T02:36:23;4.82;;;1.58;;
51248;SDS011;39642;47.556;18.728;2024-02-21T02:38:49;5.35;;;1.70;;
51248;SDS011;39642;47.556;18.728;2024-02-21T02:41:15;4.65;;;1.50;;
51248;SDS011;39642;47.556;18.728;2024-02-21T02:43:41;5.93;;;1.70;;
51248;SDS011;39642;47.556;18.728;2024-02-21T02:46:07;6.35;;;1.75;;
51248;SDS011;39642;47.556;18.728;2024-02-21T02:48:32;5.75;;;1.80;;
51248;SDS011;39642;47.556;18.728;2024-02-21T02:50:58;4.85;;;1.52;;
51248;SDS011;39642;47.556;18.728;2024-02-21T02:53:24;4.97;;;1.58;;
51248;SDS011;39642;47.556;18.728;2024-02-21T02:55:50;6.30;;;1.80;;
51248;SDS011;39642;47.556;18.728;2024-02-21T02:58:16;5.37;;;1.60;;
51248;SDS011;39642;47.556;18.728;2024-02-21T03:00:42;4.50;;;1.40;;
51248;SDS011;39642;47.556;18.728;2024-02-21T03:03:08;7.12;;;1.80;;
51248;SDS011;39642;47.556;18.728;2024-02-21T03:05:34;5.65;;;1.65;;
51248;SDS011;39642;47.556;18.728;2024-02-21T03:08:00;6.32;;;1.70;;
51248;SDS011;39642;47.556;18.728;2024-02-21T03:10:25;5.60;;;1.50;;
51248;SDS011;39642;47.556;18.728;2024-02-21T03:12:51;5.70;;;1.60;;
51248;SDS011;39642;47.556;18.728;2024-02-21T03:15:18;5.15;;;1.60;;
51248;SDS011;39642;47.556;18.728;2024-02-21T03:17:44;5.32;;;1.67;;
51248;SDS011;39642;47.556;18.728;2024-02-21T03:20:10;5.47;;;1.73;;
51248;SDS011;39642;47.556;18.728;2024-02-21T03:22:37;4.75;;;1.40;;
51248;SDS011;39642;47.556;18.728;2024-02-21T03:25:03;5.75;;;1.60;;
51248;SDS011;39642;47.556;18.728;2024-02-21T03:27:29;6.28;;;1.70;;
51248;SDS011;39642;47.556;18.728;2024-02-21T03:29:55;5.43;;;1.50;;
51248;SDS011;39642;47.556;18.728;2024-02-21T03:32:21;6.37;;;1.60;;
51248;SDS011;39642;47.556;18.728;2024-02-21T03:34:47;5.37;;;1.60;;
51248;SDS011;39642;47.556;18.728;2024-02-21T03:37:13;5.43;;;1.50;;
51248;SDS011;39642;47.556;18.728;2024-02-21T03:39:39;5.07;;;1.60;;
51248;SDS011;39642;47.556;18.728;2024-02-21T03:42:06;5.65;;;1.60;;
51248;SDS011;39642;47.556;18.728;2024-02-21T03:44:32;6.45;;;1.80;;
51248;SDS011;39642;47.556;18.728;2024-02-21T03:47:01;5.07;;;1.58;;
51248;SDS011;39642;47.556;18.728;2024-02-21T03:49:27;6.43;;;1.65;;
51248;SDS011;39642;47.556;18.728;2024-02-21T03:51:53;6.07;;;1.85;;
51248;SDS011;39642;47.556;18.728;2024-02-21T03:54:19;4.72;;;1.52;;
51248;SDS011;39642;47.556;18.728;2024-02-21T03:56:45;5.53;;;1.62;;
51248;SDS011;39642;47.556;18.728;2024-02-21T03:59:13;6.62;;;1.70;;
51248;SDS011;39642;47.556;18.728;2024-02-21T04:01:39;4.78;;;1.60;;
51248;SDS011;39642;47.556;18.728;2024-02-21T04:04:05;5.43;;;1.60;;
51248;SDS011;39642;47.556;18.728;2024-02-21T04:06:30;6.35;;;1.70;;
51248;SDS011;39642;47.556;18.728;2024-02-21T04:08:56;4.82;;;1.58;;
51248;SDS011;39642;47.556;18.728;2024-02-21T04:11:23;5.97;;;1.70;;
51248;SDS011;39642;47.556;18.728;2024-02-21T04:13:48;6.30;;;1.60;;
51248;SDS011;39642;47.556;18.728;2024-02-21T04:16:15;6.37;;;1.62;;
51248;SDS011;39642;47.556;18.728;2024-02-21T04:18:42;4.80;;;1.50;;
51248;SDS011;39642;47.556;18.728;2024-02-21T04:21:09;5.05;;;1.60;;
51248;SDS011;39642;47.556;18.728;2024-02-21T04:23:35;5.60;;;1.60;;
51248;SDS011;39642;47.556;18.728;2024-02-21T04:26:01;4.28;;;1.45;;
51248;SDS011;39642;47.556;18.728;2024-02-21T04:28:27;5.50;;;1.67;;
51248;SDS011;39642;47.556;18.728;2024-02-21T04:30:52;4.80;;;1.50;;
51248;SDS011;39642;47.556;18.728;2024-02-21T04:33:18;5.37;;;1.50;;
51248;SDS011;39642;47.556;18.728;2024-02-21T04:35:44;5.47;;;1.60;;
51248;SDS011;39642;47.556;18.728;2024-02-21T04:38:10;4.75;;;1.50;;
51248;SDS011;39642;47.556;18.728;2024-02-21T04:40:36;6.20;;;1.60;;
51248;SDS011;39642;47.556;18.728;2024-02-21T04:43:02;6.93;;;1.70;;
51248;SDS011;39642;47.556;18.728;2024-02-21T04:45:28;6.82;;;1.65;;
51248;SDS011;39642;47.556;18.728;2024-02-21T04:47:54;5.62;;;1.60;;
51248;SDS011;39642;47.556;18.728;2024-02-21T04:50:20;5.57;;;1.62;;
51248;SDS011;39642;47.556;18.728;2024-02-21T04:52:46;5.12;;;1.50;;
51248;SDS011;39642;47.556;18.728;2024-02-21T04:55:12;5.72;;;1.60;;
51248;SDS011;39642;47.556;18.728;2024-02-21T04:57:37;5.68;;;1.67;;
51248;SDS011;39642;47.556;18.728;2024-02-21T05:00:04;5.05;;;1.50;;
51248;SDS011;39642;47.556;18.728;2024-02-21T05:02:31;5.70;;;1.62;;
51248;SDS011;39642;47.556;18.728;2024-02-21T05:04:57;5.90;;;1.60;;
51248;SDS011;39642;47.556;18.728;2024-02-21T05:07:23;5.95;;;1.42;;
51248;SDS011;39642;47.556;18.728;2024-02-21T05:09:49;6.60;;;1.73;;
51248;SDS011;39642;47.556;18.728;2024-02-21T05:12:15;5.37;;;1.50;;
51248;SDS011;39642;47.556;18.728;2024-02-21T05:14:41;6.43;;;1.70;;
51248;SDS011;39642;47.556;18.728;2024-02-21T05:17:06;9.25;;;1.90;;
51248;SDS011;39642;47.556;18.728;2024-02-21T05:19:32;9.10;;;2.20;;
51248;SDS011;39642;47.556;18.728;2024-02-21T05:21:58;7.37;;;1.90;;
51248;SDS011;39642;47.556;18.728;2024-02-21T05:24:25;8.57;;;2.20;;
51248;SDS011;39642;47.556;18.728;2024-02-21T05:26:51;13.20;;;2.10;;
51248;SDS011;39642;47.556;18.728;2024-02-21T05:29:17;11.77;;;2.60;;
51248;SDS011;39642;47.556;18.728;2024-02-21T05:34:18;14.48;;;2.60;;
51248;SDS011;39642;47.556;18.728;2024-02-21T05:36:44;17.60;;;3.50;;
51248;SDS011;39642;47.556;18.728;2024-02-21T05:39:11;22.15;;;4.43;;
51248;SDS011;39642;47.556;18.728;2024-02-21T05:41:37;15.80;;;3.87;;
51248;SDS011;39642;47.556;18.728;2024-02-21T05:44:03;17.08;;;4.90;;
51248;SDS011;39642;47.556;18.728;2024-02-21T05:46:29;15.25;;;3.90;;
51248;SDS011;39642;47.556;18.728;2024-02-21T05:48:55;16.60;;;4.15;;
51248;SDS011;39642;47.556;18.728;2024-02-21T05:51:21;14.57;;;5.22;;
51248;SDS011;39642;47.556;18.728;2024-02-21T05:53:47;18.87;;;6.28;;
51248;SDS011;39642;47.556;18.728;2024-02-21T05:56:13;16.12;;;7.00;;
51248;SDS011;39642;47.556;18.728;2024-02-21T05:58:40;18.37;;;8.07;;
51248;SDS011;39642;47.556;18.728;2024-02-21T06:01:06;21.80;;;9.98;;
51248;SDS011;39642;47.556;18.728;2024-02-21T06:03:32;15.85;;;5.45;;
51248;SDS011;39642;47.556;18.728;2024-02-21T06:05:59;12.85;;;4.00;;
51248;SDS011;39642;47.556;18.728;2024-02-21T06:08:26;15.25;;;5.28;;
51248;SDS011;39642;47.556;18.728;2024-02-21T06:10:52;13.48;;;4.22;;
51248;SDS011;39642;47.556;18.728;2024-02-21T06:13:21;24.02;;;6.70;;
51248;SDS011;39642;47.556;18.728;2024-02-21T06:15:49;23.08;;;7.75;;
51248;SDS011;39642;47.556;18.728;2024-02-21T06:18:17;22.13;;;6.10;;
51248;SDS011;39642;47.556;18.728;2024-02-21T06:20:43;24.77;;;6.82;;
51248;SDS011;39642;47.556;18.728;2024-02-21T06:23:15;38.10;;;7.68;;
51248;SDS011;39642;47.556;18.728;2024-02-21T06:25:42;36.25;;;6.95;;
51248;SDS011;39642;47.556;18.728;2024-02-21T06:28:09;47.40;;;6.93;;
51248;SDS011;39642;47.556;18.728;2024-02-21T06:30:35;33.28;;;5.60;;
51248;SDS011;39642;47.556;18.728;2024-02-21T06:33:02;25.08;;;5.18;;
51248;SDS011;39642;47.556;18.728;2024-02-21T06:35:28;24.75;;;4.62;;
51248;SDS011;39642;47.556;18.728;2024-02-21T06:37:55;16.73;;;3.65;;
51248;SDS011;39642;47.556;18.728;2024-02-21T06:40:22;35.08;;;5.60;;
51248;SDS011;39642;47.556;18.728;2024-02-21T06:42:49;22.45;;;3.70;;
51248;SDS011;39642;47.556;18.728;2024-02-21T06:45:16;15.55;;;3.00;;
51248;SDS011;39642;47.556;18.728;2024-02-21T06:47:42;17.40;;;2.90;;
51248;SDS011;39642;47.556;18.728;2024-02-21T06:50:09;15.50;;;3.30;;
51248;SDS011;39642;47.556;18.728;2024-02-21T06:52:36;16.58;;;3.40;;
51248;SDS011;39642;47.556;18.728;2024-02-21T06:55:02;14.75;;;2.90;;
51248;SDS011;39642;47.556;18.728;2024-02-21T06:57:29;19.17;;;3.08;;
51248;SDS011;39642;47.556;18.728;2024-02-21T06:59:56;16.05;;;2.95;;
51248;SDS011;39642;47.556;18.728;2024-02-21T07:02:22;16.67;;;3.00;;
51248;SDS011;39642;47.556;18.728;2024-02-21T07:04:48;15.93;;;2.92;;
51248;SDS011;39642;47.556;18.728;2024-02-21T07:07:15;23.33;;;3.40;;
51248;SDS011;39642;47.556;18.728;2024-02-21T07:09:42;20.80;;;3.20;;
51248;SDS011;39642;47.556;18.728;2024-02-21T07:12:08;21.42;;;3.35;;
51248;SDS011;39642;47.556;18.728;2024-02-21T07:14:35;15.27;;;3.05;;
51248;SDS011;39642;47.556;18.728;2024-02-21T07:17:02;18.65;;;2.60;;
51248;SDS011;39642;47.556;18.728;2024-02-21T07:19:29;20.65;;;3.40;;
51248;SDS011;39642;47.556;18.728;2024-02-21T07:21:56;19.80;;;3.70;;
51248;SDS011;39642;47.556;18.728;2024-02-21T07:24:23;27.17;;;4.00;;
51248;SDS011;39642;47.556;18.728;2024-02-21T07:26:51;26.92;;;4.12;;
51248;SDS011;39642;47.556;18.728;2024-02-21T07:29:18;26.10;;;3.67;;
51248;SDS011;39642;47.556;18.728;2024-02-21T07:31:45;16.55;;;3.03;;
51248;SDS011;39642;47.556;18.728;2024-02-21T07:34:10;32.08;;;4.90;;
51248;SDS011;39642;47.556;18.728;2024-02-21T07:36:36;21.70;;;3.30;;
51248;SDS011;39642;47.556;18.728;2024-02-21T07:39:04;16.62;;;3.25;;
51248;SDS011;39642;47.556;18.728;2024-02-21T07:41:30;18.95;;;3.30;;
51248;SDS011;39642;47.556;18.728;2024-02-21T07:43:56;12.18;;;2.80;;
51248;SDS011;39642;47.556;18.728;2024-02-21T07:46:23;15.02;;;2.72;;
51248;SDS011;39642;47.556;18.728;2024-02-21T07:48:48;21.42;;;3.75;;
51248;SDS011;39642;47.556;18.728;2024-02-21T07:51:14;16.17;;;2.83;;
51248;SDS011;39642;47.556;18.728;2024-02-21T07:53:44;22.70;;;3.85;;
51248;SDS011;39642;47.556;18.728;2024-02-21T07:56:11;18.67;;;3.10;;
51248;SDS011;39642;47.556;18.728;2024-02-21T07:58:38;28.58;;;3.12;;
51248;SDS011;39642;47.556;18.728;2024-02-21T08:01:04;31.35;;;4.18;;
51248;SDS011;39642;47.556;18.728;2024-02-21T08:03:31;24.95;;;3.42;;
51248;SDS011;39642;47.556;18.728;2024-02-21T08:05:57;17.10;;;2.80;;
51248;SDS011;39642;47.556;18.728;2024-02-21T08:08:23;25.48;;;3.58;;
51248;SDS011;39642;47.556;18.728;2024-02-21T08:10:50;27.58;;;3.47;;
51248;SDS011;39642;47.556;18.728;2024-02-21T08:13:17;24.00;;;3.45;;
51248;SDS011;39642;47.556;18.728;2024-02-21T08:15:43;14.98;;;3.00;;
51248;SDS011;39642;47.556;18.728;2024-02-21T08:18:10;25.67;;;4.45;;
51248;SDS011;39642;47.556;18.728;2024-02-21T08:20:36;36.38;;;4.95;;
51248;SDS011;39642;47.556;18.728;2024-02-21T08:23:02;68.53;;;8.05;;
51248;SDS011;39642;47.556;18.728;2024-02-21T08:25:28;38.80;;;5.45;;
51248;SDS011;39642;47.556;18.728;2024-02-21T08:27:57;56.55;;;7.80;;
51248;SDS011;39642;47.556;18.728;2024-02-21T08:30:24;34.10;;;5.35;;
51248;SDS011;39642;47.556;18.728;2024-02-21T08:32:53;49.38;;;8.23;;
51248;SDS011;39642;47.556;18.728;2024-02-21T08:35:20;55.65;;;8.13;;
51248;SDS011;39642;47.556;18.728;2024-02-21T08:37:49;28.35;;;5.07;;
51248;SDS011;39642;47.556;18.728;2024-02-21T08:40:16;40.55;;;5.85;;
51248;SDS011;39642;47.556;18.728;2024-02-21T08:42:47;50.47;;;6.78;;
51248;SDS011;39642;47.556;18.728;2024-02-21T08:45:14;44.80;;;7.53;;
51248;SDS011;39642;47.556;18.728;2024-02-21T08:47:40;32.33;;;5.68;;
51248;SDS011;39642;47.556;18.728;2024-02-21T08:50:10;28.30;;;4.72;;
51248;SDS011;39642;47.556;18.728;2024-02-21T08:52:39;23.70;;;4.87;;
51248;SDS011;39642;47.556;18.728;2024-02-21T08:55:05;46.28;;;7.10;;
51248;SDS011;39642;47.556;18.728;2024-02-21T08:57:32;33.10;;;6.10;;
51248;SDS011;39642;47.556;18.728;2024-02-21T09:00:05;31.75;;;6.05;;
51248;SDS011;39642;47.556;18.728;2024-02-21T09:02:40;27.62;;;6.93;;
51248;SDS011;39642;47.556;18.728;2024-02-21T09:05:08;27.75;;;5.85;;
51248;SDS011;39642;47.556;18.728;2024-02-21T09:07:35;25.85;;;5.03;;
51248;SDS011;39642;47.556;18.728;2024-02-21T09:10:01;25.98;;;4.97;;
51248;SDS011;39642;47.556;18.728;2024-02-21T09:12:28;20.73;;;4.47;;
51248;SDS011;39642;47.556;18.728;2024-02-21T09:14:55;29.58;;;6.10;;
51248;SDS011;39642;47.556;18.728;2024-02-21T09:17:21;22.10;;;4.70;;
51248;SDS011;39642;47.556;18.728;2024-02-21T09:19:47;28.65;;;5.85;;
51248;SDS011;39642;47.556;18.728;2024-02-21T09:22:14;21.85;;;5.50;;
51248;SDS011;39642;47.556;18.728;2024-02-21T09:24:40;20.40;;;4.87;;
51248;SDS011;39642;47.556;18.728;2024-02-21T09:27:06;20.62;;;4.93;;
51248;SDS011;39642;47.556;18.728;2024-02-21T09:29:33;21.65;;;5.25;;
51248;SDS011;39642;47.556;18.728;2024-02-21T09:31:59;23.52;;;5.00;;
51248;SDS011;39642;47.556;18.728;2024-02-21T09:34:26;24.20;;;4.78;;
51248;SDS011;39642;47.556;18.728;2024-02-21T09:36:55;22.58;;;5.70;;
51248;SDS011;39642;47.556;18.728;2024-02-21T09:39:22;24.10;;;6.82;;
51248;SDS011;39642;47.556;18.728;2024-02-21T09:41:58;28.87;;;8.50;;
51248;SDS011;39642;47.556;18.728;2024-02-21T09:44:31;28.40;;;6.45;;
51248;SDS011;39642;47.556;18.728;2024-02-21T09:47:02;29.10;;;5.60;;
51248;SDS011;39642;47.556;18.728;2024-02-21T09:52:01;32.17;;;5.10;;
51248;SDS011;39642;47.556;18.728;2024-02-21T09:54:34;34.80;;;7.57;;
51248;SDS011;39642;47.556;18.728;2024-02-21T09:57:04;38.05;;;7.05;;
51248;SDS011;39642;47.556;18.728;2024-02-21T09:59:32;34.28;;;6.45;;
51248;SDS011;39642;47.556;18.728;2024-02-21T10:02:02;47.17;;;7.45;;
51248;SDS011;39642;47.556;18.728;2024-02-21T10:04:28;39.30;;;6.87;;
51248;SDS011;39642;47.556;18.728;2024-02-21T10:06:55;40.25;;;6.22;;
51248;SDS011;39642;47.556;18.728;2024-02-21T10:09:23;32.20;;;4.72;;
51248;SDS011;39642;47.556;18.728;2024-02-21T10:11:53;30.95;;;5.40;;
51248;SDS011;39642;47.556;18.728;2024-02-21T10:14:20;27.67;;;7.12;;
51248;SDS011;39642;47.556;18.728;2024-02-21T10:16:56;25.27;;;6.22;;
51248;SDS011;39642;47.556;18.728;2024-02-21T10:19:26;26.20;;;5.90;;
51248;SDS011;39642;47.556;18.728;2024-02-21T10:21:59;20.92;;;4.47;;
51248;SDS011;39642;47.556;18.728;2024-02-21T10:24:29;23.92;;;5.93;;
51248;SDS011;39642;47.556;18.728;2024-02-21T10:27:05;24.05;;;4.90;;
51248;SDS011;39642;47.556;18.728;2024-02-21T10:29:39;19.70;;;4.28;;
51248;SDS011;39642;47.556;18.728;2024-02-21T10:32:07;20.17;;;4.65;;
51248;SDS011;39642;47.556;18.728;2024-02-21T10:34:34;18.95;;;5.45;;
51248;SDS011;39642;47.556;18.728;2024-02-21T10:37:04;20.08;;;4.70;;
51248;SDS011;39642;47.556;18.728;2024-02-21T10:39:40;21.45;;;5.68;;
51248;SDS011;39642;47.556;18.728;2024-02-21T10:42:07;24.00;;;4.53;;
51248;SDS011;39642;47.556;18.728;2024-02-21T10:44:37;31.00;;;6.00;;
51248;SDS011;39642;47.556;18.728;2024-02-21T10:47:07;27.35;;;5.28;;
51248;SDS011;39642;47.556;18.728;2024-02-21T10:49:37;31.00;;;5.85;;
51248;SDS011;39642;47.556;18.728;2024-02-21T10:55:56;27.05;;;4.43;;
51248;SDS011;39642;47.556;18.728;2024-02-21T10:58:29;18.48;;;3.78;;
51248;SDS011;39642;47.556;18.728;2024-02-21T11:00:56;26.45;;;4.50;;
51248;SDS011;39642;47.556;18.728;2024-02-21T11:03:22;26.90;;;5.00;;
51248;SDS011;39642;47.556;18.728;2024-02-21T11:05:49;23.50;;;4.18;;
51248;SDS011;39642;47.556;18.728;2024-02-21T11:08:15;20.88;;;5.25;;
51248;SDS011;39642;47.556;18.728;2024-02-21T11:10:45;21.50;;;3.80;;
51248;SDS011;39642;47.556;18.728;2024-02-21T11:13:11;22.90;;;4.62;;
51248;SDS011;39642;47.556;18.728;2024-02-21T11:15:39;18.40;;;4.12;;
51248;SDS011;39642;47.556;18.728;2024-02-21T11:18:05;18.48;;;3.95;;
51248;SDS011;39642;47.556;18.728;2024-02-21T11:20:34;16.15;;;3.85;;
51248;SDS011;39642;47.556;18.728;2024-02-21T11:23:02;15.57;;;3.62;;
51248;SDS011;39642;47.556;18.728;2024-02-21T11:25:28;19.70;;;4.07;;
51248;SDS011;39642;47.556;18.728;2024-02-21T11:27:59;29.95;;;5.35;;
51248;SDS011;39642;47.556;18.728;2024-02-21T11:30:32;15.85;;;3.83;;
51248;SDS011;39642;47.556;18.728;2024-02-21T11:33:01;20.20;;;4.75;;
51248;SDS011;39642;47.556;18.728;2024-02-21T11:35:31;29.30;;;5.53;;
51248;SDS011;39642;47.556;18.728;2024-02-21T11:38:12;23.05;;;4.40;;
51248;SDS011;39642;47.556;18.728;2024-02-21T11:40:43;24.08;;;4.15;;
51248;SDS011;39642;47.556;18.728;2024-02-21T11:43:10;20.52;;;4.43;;
51248;SDS011;39642;47.556;18.728;2024-02-21T11:45:36;36.45;;;5.15;;
51248;SDS011;39642;47.556;18.728;2024-02-21T11:48:02;33.75;;;4.97;;
51248;SDS011;39642;47.556;18.728;2024-02-21T11:50:31;36.00;;;6.10;;
51248;SDS011;39642;47.556;18.728;2024-02-21T11:52:57;39.47;;;7.00;;
51248;SDS011;39642;47.556;18.728;2024-02-21T11:55:23;30.55;;;5.22;;
51248;SDS011;39642;47.556;18.728;2024-02-21T11:57:49;21.60;;;4.03;;
51248;SDS011;39642;47.556;18.728;2024-02-21T12:00:16;36.72;;;7.18;;
51248;SDS011;39642;47.556;18.728;2024-02-21T12:02:43;25.30;;;4.90;;
51248;SDS011;39642;47.556;18.728;2024-02-21T12:05:10;24.23;;;4.90;;
51248;SDS011;39642;47.556;18.728;2024-02-21T12:07:37;26.23;;;4.87;;
51248;SDS011;39642;47.556;18.728;2024-02-21T12:10:07;23.65;;;4.95;;
51248;SDS011;39642;47.556;18.728;2024-02-21T12:12:36;19.15;;;4.32;;
51248;SDS011;39642;47.556;18.728;2024-02-21T12:15:03;18.70;;;4.00;;
51248;SDS011;39642;47.556;18.728;2024-02-21T12:17:34;21.42;;;4.35;;
51248;SDS011;39642;47.556;18.728;2024-02-21T12:20:03;24.85;;;5.15;;
51248;SDS011;39642;47.556;18.728;2024-02-21T12:22:52;18.67;;;4.95;;
51248;SDS011;39642;47.556;18.728;2024-02-21T12:25:20;20.00;;;4.47;;
51248;SDS011;39642;47.556;18.728;2024-02-21T12:28:10;20.92;;;4.78;;
51248;SDS011;39642;47.556;18.728;2024-02-21T12:30:37;18.92;;;4.62;;
51248;SDS011;39642;47.556;18.728;2024-02-21T12:33:05;16.67;;;3.97;;
51248;SDS011;39642;47.556;18.728;2024-02-21T12:35:31;28.48;;;4.60;;
51248;SDS011;39642;47.556;18.728;2024-02-21T12:37:58;23.50;;;4.47;;
51248;SDS011;39642;47.556;18.728;2024-02-21T12:40:25;21.80;;;4.18;;
51248;SDS011;39642;47.556;18.728;2024-02-21T12:43:00;28.43;;;4.47;;
51248;SDS011;39642;47.556;18.728;2024-02-21T12:45:30;20.58;;;3.75;;
51248;SDS011;39642;47.556;18.728;2024-02-21T12:47:56;17.40;;;3.85;;
51248;SDS011;39642;47.556;18.728;2024-02-21T12:50:21;23.85;;;3.90;;
51248;SDS011;39642;47.556;18.728;2024-02-21T12:52:48;17.33;;;3.60;;
51248;SDS011;39642;47.556;18.728;2024-02-21T12:55:15;29.02;;;4.15;;
51248;SDS011;39642;47.556;18.728;2024-02-21T12:57:44;17.90;;;3.65;;
51248;SDS011;39642;47.556;18.728;2024-02-21T13:00:09;30.25;;;3.90;;
51248;SDS011;39642;47.556;18.728;2024-02-21T13:02:36;28.58;;;4.15;;
51248;SDS011;39642;47.556;18.728;2024-02-21T13:05:02;20.80;;;3.25;;
51248;SDS011;39642;47.556;18.728;2024-02-21T13:07:29;29.55;;;4.28;;
51248;SDS011;39642;47.556;18.728;2024-02-21T13:09:55;26.30;;;4.30;;
51248;SDS011;39642;47.556;18.728;2024-02-21T13:12:20;23.17;;;3.70;;
51248;SDS011;39642;47.556;18.728;2024-02-21T13:14:46;18.33;;;3.12;;
51248;SDS011;39642;47.556;18.728;2024-02-21T13:17:12;19.85;;;3.08;;
51248;SDS011;39642;47.556;18.728;2024-02-21T13:19:40;19.30;;;3.53;;
51248;SDS011;39642;47.556;18.728;2024-02-21T13:22:06;15.52;;;2.95;;
51248;SDS011;39642;47.556;18.728;2024-02-21T13:24:32;19.45;;;3.40;;
51248;SDS011;39642;47.556;18.728;2024-02-21T13:26:58;19.20;;;3.47;;
51248;SDS011;39642;47.556;18.728;2024-02-21T13:29:24;23.95;;;4.37;;
51248;SDS011;39642;47.556;18.728;2024-02-21T13:31:50;28.75;;;4.00;;
51248;SDS011;39642;47.556;18.728;2024-02-21T13:34:16;22.37;;;4.18;;
51248;SDS011;39642;47.556;18.728;2024-02-21T13:36:42;23.50;;;4.05;;
51248;SDS011;39642;47.556;18.728;2024-02-21T13:39:08;17.25;;;3.35;;
51248;SDS011;39642;47.556;18.728;2024-02-21T13:41:38;22.37;;;3.60;;
51248;SDS011;39642;47.556;18.728;2024-02-21T13:44:04;18.48;;;3.75;;
51248;SDS011;39642;47.556;18.728;2024-02-21T13:46:30;23.80;;;4.30;;
51248;SDS011;39642;47.556;18.728;2024-02-21T13:49:03;17.90;;;3.67;;
51248;SDS011;39642;47.556;18.728;2024-02-21T13:51:31;23.70;;;3.58;;
51248;SDS011;39642;47.556;18.728;2024-02-21T13:53:57;20.08;;;3.95;;
51248;SDS011;39642;47.556;18.728;2024-02-21T13:56:24;17.50;;;3.12;;
51248;SDS011;39642;47.556;18.728;2024-02-21T13:58:50;20.75;;;3.17;;
51248;SDS011;39642;47.556;18.728;2024-02-21T14:01:19;20.02;;;3.15;;
51248;SDS011;39642;47.556;18.728;2024-02-21T14:03:46;20.45;;;3.20;;
51248;SDS011;39642;47.556;18.728;2024-02-21T14:06:12;13.95;;;3.00;;
51248;SDS011;39642;47.556;18.728;2024-02-21T14:08:38;18.92;;;3.20;;
51248;SDS011;39642;47.556;18.728;2024-02-21T14:11:05;16.40;;;3.33;;
51248;SDS011;39642;47.556;18.728;2024-02-21T14:13:32;15.13;;;3.00;;
51248;SDS011;39642;47.556;18.728;2024-02-21T14:15:58;17.95;;;3.33;;
51248;SDS011;39642;47.556;18.728;2024-02-21T14:18:24;24.85;;;3.40;;
51248;SDS011;39642;47.556;18.728;2024-02-21T14:20:50;32.40;;;4.53;;
51248;SDS011;39642;47.556;18.728;2024-02-21T14:23:15;29.98;;;4.35;;
51248;SDS011;39642;47.556;18.728;2024-02-21T14:25:41;24.55;;;4.60;;
51248;SDS011;39642;47.556;18.728;2024-02-21T14:28:07;32.22;;;4.25;;
51248;SDS011;39642;47.556;18.728;2024-02-21T14:30:35;26.50;;;4.65;;
51248;SDS011;39642;47.556;18.728;2024-02-21T14:33:01;33.67;;;4.05;;
51248;SDS011;39642;47.556;18.728;2024-02-21T14:35:27;35.53;;;4.20;;
51248;SDS011;39642;47.556;18.728;2024-02-21T14:37:53;25.92;;;4.20;;